sensor_id;sensor_type;location;lat;lon;timestamp;pressure;altitude;pressure_sealevel;temperature;humidity
14383;BME280;7275;50.328;8.720;2022-10-19T00:01:05;100819.81;;;19.86;51.27
14383;BME280;7275;50.328;8.720;2022-10-19T00:03:35;100820.00;;;19.83;51.13
14383;BME280;7275;50.328;8.720;2022-10-19T00:06:12;100812.22;;;19.79;51.23
14383;BME280;7275;50.328;8.720;2022-10-19T00:08:40;100822.28;;;19.75;51.35
14383;BME280;7275;50.328;8.720;2022-10-19T00:11:07;100813.50;;;19.72;51.40
14383;BME280;7275;50.328;8.720;2022-10-19T00:13:36;100807.28;;;19.71;51.48
14383;BME280;7275;50.328;8.720;2022-10-19T00:16:07;100805.66;;;19.69;51.34
14383;BME280;7275;50.328;8.720;2022-10-19T00:18:37;100802.25;;;19.65;51.41
14383;BME280;7275;50.328;8.720;2022-10-19T00:21:07;100807.81;;;19.62;51.34
14383;BME280;7275;50.328;8.720;2022-10-19T00:23:37;100805.38;;;19.58;51.47
14383;BME280;7275;50.328;8.720;2022-10-19T00:26:05;100802.81;;;19.56;51.51
14383;BME280;7275;50.328;8.720;2022-10-19T00:28:32;100805.66;;;19.53;51.61
14383;BME280;7275;50.328;8.720;2022-10-19T00:31:01;100807.53;;;19.51;51.61
14383;BME280;7275;50.328;8.720;2022-10-19T00:33:29;100800.53;;;19.49;51.70
14383;BME280;7275;50.328;8.720;2022-10-19T00:35:57;100806.94;;;19.46;51.68
14383;BME280;7275;50.328;8.720;2022-10-19T00:38:24;100812.47;;;19.43;51.76
14383;BME280;7275;50.328;8.720;2022-10-19T00:40:53;100812.63;;;19.40;51.81
14383;BME280;7275;50.328;8.720;2022-10-19T00:43:24;100803.81;;;19.38;51.73
14383;BME280;7275;50.328;8.720;2022-10-19T00:45:52;100808.50;;;19.35;51.84
14383;BME280;7275;50.328;8.720;2022-10-19T00:48:21;100807.78;;;19.31;51.84
14383;BME280;7275;50.328;8.720;2022-10-19T00:50:52;100806.03;;;19.30;51.82
14383;BME280;7275;50.328;8.720;2022-10-19T00:53:20;100808.03;;;19.27;51.84
14383;BME280;7275;50.328;8.720;2022-10-19T00:55:49;100803.69;;;19.24;51.95
14383;BME280;7275;50.328;8.720;2022-10-19T00:58:18;100800.13;;;19.24;51.91
14383;BME280;7275;50.328;8.720;2022-10-19T01:00:46;100801.19;;;19.21;51.93
14383;BME280;7275;50.328;8.720;2022-10-19T01:03:14;100797.72;;;19.19;52.00
14383;BME280;7275;50.328;8.720;2022-10-19T01:05:42;100793.41;;;19.17;51.98
14383;BME280;7275;50.328;8.720;2022-10-19T01:08:10;100799.78;;;19.14;52.00
14383;BME280;7275;50.328;8.720;2022-10-19T01:10:44;100793.66;;;19.12;51.97
14383;BME280;7275;50.328;8.720;2022-10-19T01:13:27;100801.84;;;19.09;52.04
14383;BME280;7275;50.328;8.720;2022-10-19T01:16:02;100795.69;;;19.07;51.97
14383;BME280;7275;50.328;8.720;2022-10-19T01:18:39;100795.78;;;19.05;51.99
14383;BME280;7275;50.328;8.720;2022-10-19T01:21:23;100796.75;;;19.04;51.96
14383;BME280;7275;50.328;8.720;2022-10-19T01:24:13;100799.69;;;19.00;51.89
14383;BME280;7275;50.328;8.720;2022-10-19T01:27:11;100799.91;;;18.95;52.01
14383;BME280;7275;50.328;8.720;2022-10-19T01:30:04;100795.69;;;18.91;51.97
14383;BME280;7275;50.328;8.720;2022-10-19T01:32:40;100797.63;;;18.88;51.99
14383;BME280;7275;50.328;8.720;2022-10-19T01:35:17;100793.41;;;18.84;52.14
14383;BME280;7275;50.328;8.720;2022-10-19T01:37:50;100787.25;;;18.82;52.24
14383;BME280;7275;50.328;8.720;2022-10-19T01:40:27;100797.28;;;18.78;52.09
14383;BME280;7275;50.328;8.720;2022-10-19T01:43:00;100787.53;;;18.77;52.19
14383;BME280;7275;50.328;8.720;2022-10-19T01:45:34;100790.34;;;18.74;52.18
14383;BME280;7275;50.328;8.720;2022-10-19T01:48:09;100787.91;;;18.70;52.09
14383;BME280;7275;50.328;8.720;2022-10-19T01:50:41;100782.75;;;18.67;52.21
14383;BME280;7275;50.328;8.720;2022-10-19T01:53:10;100780.22;;;18.64;52.18
14383;BME280;7275;50.328;8.720;2022-10-19T01:55:43;100778.63;;;18.60;52.26
14383;BME280;7275;50.328;8.720;2022-10-19T01:58:16;100783.34;;;18.55;52.37
14383;BME280;7275;50.328;8.720;2022-10-19T02:00:47;100780.00;;;18.51;52.31
14383;BME280;7275;50.328;8.720;2022-10-19T02:03:16;100779.34;;;18.46;52.34
14383;BME280;7275;50.328;8.720;2022-10-19T02:05:46;100778.56;;;18.44;52.55
14383;BME280;7275;50.328;8.720;2022-10-19T02:08:18;100787.63;;;18.42;52.55
14383;BME280;7275;50.328;8.720;2022-10-19T02:10:47;100785.00;;;18.40;52.49
14383;BME280;7275;50.328;8.720;2022-10-19T02:13:15;100775.38;;;18.36;52.41
14383;BME280;7275;50.328;8.720;2022-10-19T02:15:47;100780.84;;;18.34;52.66
14383;BME280;7275;50.328;8.720;2022-10-19T02:18:26;100788.09;;;18.32;52.51
14383;BME280;7275;50.328;8.720;2022-10-19T02:20:54;100780.13;;;18.31;52.62
14383;BME280;7275;50.328;8.720;2022-10-19T02:23:24;100788.22;;;18.29;52.55
14383;BME280;7275;50.328;8.720;2022-10-19T02:25:53;100774.06;;;18.27;52.65
14383;BME280;7275;50.328;8.720;2022-10-19T02:28:22;100781.28;;;18.25;52.45
14383;BME280;7275;50.328;8.720;2022-10-19T02:30:57;100780.59;;;18.22;52.39
14383;BME280;7275;50.328;8.720;2022-10-19T02:33:25;100785.25;;;18.18;52.58
14383;BME280;7275;50.328;8.720;2022-10-19T02:35:54;100788.00;;;18.17;52.50
14383;BME280;7275;50.328;8.720;2022-10-19T02:38:22;100769.50;;;18.12;52.58
14383;BME280;7275;50.328;8.720;2022-10-19T02:40:57;100773.03;;;18.13;52.78
14383;BME280;7275;50.328;8.720;2022-10-19T02:43:27;100781.94;;;18.13;52.48
14383;BME280;7275;50.328;8.720;2022-10-19T02:46:03;100771.31;;;18.12;52.60
14383;BME280;7275;50.328;8.720;2022-10-19T02:48:32;100768.63;;;18.12;52.64
14383;BME280;7275;50.328;8.720;2022-10-19T02:51:01;100775.78;;;18.11;52.45
14383;BME280;7275;50.328;8.720;2022-10-19T02:53:29;100762.50;;;18.10;52.46
14383;BME280;7275;50.328;8.720;2022-10-19T02:55:56;100767.84;;;18.10;52.59
14383;BME280;7275;50.328;8.720;2022-10-19T02:58:24;100758.06;;;18.09;52.42
14383;BME280;7275;50.328;8.720;2022-10-19T03:00:51;100768.00;;;18.07;52.51
14383;BME280;7275;50.328;8.720;2022-10-19T03:03:20;100762.72;;;18.05;52.55
14383;BME280;7275;50.328;8.720;2022-10-19T03:05:47;100761.00;;;18.04;52.51
14383;BME280;7275;50.328;8.720;2022-10-19T03:08:15;100754.84;;;18.02;52.53
14383;BME280;7275;50.328;8.720;2022-10-19T03:10:42;100755.88;;;18.00;52.37
14383;BME280;7275;50.328;8.720;2022-10-19T03:13:10;100756.91;;;17.97;52.50
14383;BME280;7275;50.328;8.720;2022-10-19T03:15:37;100753.53;;;17.94;52.50
14383;BME280;7275;50.328;8.720;2022-10-19T03:18:05;100750.06;;;17.92;52.69
14383;BME280;7275;50.328;8.720;2022-10-19T03:20:34;100751.06;;;17.89;52.49
14383;BME280;7275;50.328;8.720;2022-10-19T03:23:01;100756.56;;;17.86;52.62
14383;BME280;7275;50.328;8.720;2022-10-19T03:25:29;100751.22;;;17.86;52.54
14383;BME280;7275;50.328;8.720;2022-10-19T03:27:56;100753.91;;;17.86;52.52
14383;BME280;7275;50.328;8.720;2022-10-19T03:30:24;100758.47;;;17.84;52.63
14383;BME280;7275;50.328;8.720;2022-10-19T03:32:51;100749.72;;;17.81;52.65
14383;BME280;7275;50.328;8.720;2022-10-19T03:35:19;100747.13;;;17.79;52.61
14383;BME280;7275;50.328;8.720;2022-10-19T03:37:47;100749.88;;;17.78;52.43
14383;BME280;7275;50.328;8.720;2022-10-19T03:40:15;100748.28;;;17.74;52.46
14383;BME280;7275;50.328;8.720;2022-10-19T03:42:43;100752.06;;;17.70;52.52
14383;BME280;7275;50.328;8.720;2022-10-19T03:45:10;100757.50;;;17.68;52.42
14383;BME280;7275;50.328;8.720;2022-10-19T03:47:38;100753.31;;;17.63;52.48
14383;BME280;7275;50.328;8.720;2022-10-19T03:50:05;100757.06;;;17.58;52.58
14383;BME280;7275;50.328;8.720;2022-10-19T03:52:36;100762.59;;;17.55;52.77
14383;BME280;7275;50.328;8.720;2022-10-19T03:55:06;100762.66;;;17.54;52.75
14383;BME280;7275;50.328;8.720;2022-10-19T03:57:34;100761.88;;;17.52;52.49
14383;BME280;7275;50.328;8.720;2022-10-19T04:00:02;100760.25;;;17.48;52.58
14383;BME280;7275;50.328;8.720;2022-10-19T04:02:30;100761.31;;;17.44;52.51
14383;BME280;7275;50.328;8.720;2022-10-19T04:04:57;100762.34;;;17.41;52.70
14383;BME280;7275;50.328;8.720;2022-10-19T04:07:25;100755.34;;;17.39;52.63
14383;BME280;7275;50.328;8.720;2022-10-19T04:09:52;100760.91;;;17.34;52.60
14383;BME280;7275;50.328;8.720;2022-10-19T04:12:21;100759.25;;;17.32;52.69
14383;BME280;7275;50.328;8.720;2022-10-19T04:14:48;100757.66;;;17.28;52.86
14383;BME280;7275;50.328;8.720;2022-10-19T04:17:23;100754.19;;;17.26;52.72
14383;BME280;7275;50.328;8.720;2022-10-19T04:19:51;100751.59;;;17.24;52.71
14383;BME280;7275;50.328;8.720;2022-10-19T04:22:18;100764.09;;;17.24;52.78
14383;BME280;7275;50.328;8.720;2022-10-19T04:24:46;100762.41;;;17.21;52.77
14383;BME280;7275;50.328;8.720;2022-10-19T04:27:13;100764.31;;;17.19;52.67
14383;BME280;7275;50.328;8.720;2022-10-19T04:29:42;100761.72;;;17.18;52.61
14383;BME280;7275;50.328;8.720;2022-10-19T04:32:10;100766.19;;;17.17;52.64
14383;BME280;7275;50.328;8.720;2022-10-19T04:34:37;100766.34;;;17.14;52.77
14383;BME280;7275;50.328;8.720;2022-10-19T04:37:05;100762.78;;;17.14;52.59
14383;BME280;7275;50.328;8.720;2022-10-19T04:39:33;100765.56;;;17.12;52.61
14383;BME280;7275;50.328;8.720;2022-10-19T04:42:04;100767.44;;;17.10;52.59
14383;BME280;7275;50.328;8.720;2022-10-19T04:44:32;100776.44;;;17.08;52.64
14383;BME280;7275;50.328;8.720;2022-10-19T04:47:00;100769.53;;;17.04;52.60
14383;BME280;7275;50.328;8.720;2022-10-19T04:49:28;100782.13;;;17.00;52.68
14383;BME280;7275;50.328;8.720;2022-10-19T04:51:55;100783.22;;;16.96;52.75
14383;BME280;7275;50.328;8.720;2022-10-19T04:54:23;100778.81;;;16.95;52.62
14383;BME280;7275;50.328;8.720;2022-10-19T04:56:50;100780.78;;;16.92;52.70
14383;BME280;7275;50.328;8.720;2022-10-19T04:59:19;100784.38;;;16.91;52.89
14383;BME280;7275;50.328;8.720;2022-10-19T05:01:46;100788.00;;;16.90;52.88
14383;BME280;7275;50.328;8.720;2022-10-19T05:04:15;100788.03;;;16.88;52.97
14383;BME280;7275;50.328;8.720;2022-10-19T05:06:42;100778.44;;;16.84;52.64
14383;BME280;7275;50.328;8.720;2022-10-19T05:09:10;100780.31;;;16.82;52.96
14383;BME280;7275;50.328;8.720;2022-10-19T05:11:37;100786.66;;;16.79;52.87
14383;BME280;7275;50.328;8.720;2022-10-19T05:14:05;100787.59;;;16.78;52.84
14383;BME280;7275;50.328;8.720;2022-10-19T05:16:32;100781.38;;;16.78;52.68
14383;BME280;7275;50.328;8.720;2022-10-19T05:19:00;100785.00;;;16.77;52.82
14383;BME280;7275;50.328;8.720;2022-10-19T05:21:29;100789.56;;;16.75;52.80
14383;BME280;7275;50.328;8.720;2022-10-19T05:23:56;100774.47;;;16.74;52.78
14383;BME280;7275;50.328;8.720;2022-10-19T05:26:25;100779.88;;;16.72;52.60
14383;BME280;7275;50.328;8.720;2022-10-19T05:28:54;100778.13;;;16.71;52.94
14383;BME280;7275;50.328;8.720;2022-10-19T05:31:24;100776.41;;;16.70;52.70
14383;BME280;7275;50.328;8.720;2022-10-19T05:33:52;100784.53;;;16.67;52.82
14383;BME280;7275;50.328;8.720;2022-10-19T05:36:23;100786.34;;;16.67;52.97
14383;BME280;7275;50.328;8.720;2022-10-19T05:38:55;100780.88;;;16.70;52.96
14383;BME280;7275;50.328;8.720;2022-10-19T05:41:24;100778.00;;;16.74;53.03
14383;BME280;7275;50.328;8.720;2022-10-19T05:43:54;100771.59;;;16.78;52.76
14383;BME280;7275;50.328;8.720;2022-10-19T05:46:22;100776.72;;;16.83;52.87
14383;BME280;7275;50.328;8.720;2022-10-19T05:48:50;100770.34;;;16.86;52.70
14383;BME280;7275;50.328;8.720;2022-10-19T05:51:19;100771.09;;;16.89;52.59
14383;BME280;7275;50.328;8.720;2022-10-19T05:53:47;100763.88;;;16.91;52.74
14383;BME280;7275;50.328;8.720;2022-10-19T05:56:18;100763.78;;;16.93;52.64
14383;BME280;7275;50.328;8.720;2022-10-19T05:58:47;100759.31;;;16.93;52.67
14383;BME280;7275;50.328;8.720;2022-10-19T06:01:15;100754.84;;;16.94;52.47
14383;BME280;7275;50.328;8.720;2022-10-19T06:03:44;100767.41;;;16.92;52.49
14383;BME280;7275;50.328;8.720;2022-10-19T06:06:12;100769.22;;;16.91;52.41
14383;BME280;7275;50.328;8.720;2022-10-19T06:08:40;100781.69;;;16.91;52.41
14383;BME280;7275;50.328;8.720;2022-10-19T06:11:09;100782.66;;;16.90;52.29
14383;BME280;7275;50.328;8.720;2022-10-19T06:13:39;100783.50;;;16.90;52.43
14383;BME280;7275;50.328;8.720;2022-10-19T06:16:08;100788.00;;;16.90;52.56
14383;BME280;7275;50.328;8.720;2022-10-19T06:18:36;100790.72;;;16.88;52.16
14383;BME280;7275;50.328;8.720;2022-10-19T06:21:08;100791.59;;;16.89;52.39
14383;BME280;7275;50.328;8.720;2022-10-19T06:23:37;100780.19;;;16.85;52.55
14383;BME280;7275;50.328;8.720;2022-10-19T06:26:06;100774.09;;;16.82;52.33
14383;BME280;7275;50.328;8.720;2022-10-19T06:28:34;100781.47;;;16.76;52.52
14383;BME280;7275;50.328;8.720;2022-10-19T06:31:04;100785.00;;;16.77;52.33
14383;BME280;7275;50.328;8.720;2022-10-19T06:33:35;100782.47;;;16.74;52.37
14383;BME280;7275;50.328;8.720;2022-10-19T06:36:06;100779.91;;;16.71;52.28
14383;BME280;7275;50.328;8.720;2022-10-19T06:38:33;100782.75;;;16.68;52.21
14383;BME280;7275;50.328;8.720;2022-10-19T06:41:01;100789.16;;;16.64;52.18
14383;BME280;7275;50.328;8.720;2022-10-19T06:43:29;100792.03;;;16.59;52.26
14383;BME280;7275;50.328;8.720;2022-10-19T06:45:57;100791.31;;;16.56;52.19
14383;BME280;7275;50.328;8.720;2022-10-19T06:48:25;100797.66;;;16.53;52.50
14383;BME280;7275;50.328;8.720;2022-10-19T06:50:56;100796.84;;;16.51;52.29
14383;BME280;7275;50.328;8.720;2022-10-19T06:53:24;100807.53;;;16.51;52.26
14383;BME280;7275;50.328;8.720;2022-10-19T06:55:52;100806.66;;;16.51;52.18
14383;BME280;7275;50.328;8.720;2022-10-19T06:58:19;100806.78;;;16.48;52.12
14383;BME280;7275;50.328;8.720;2022-10-19T07:00:53;100808.69;;;16.44;52.13
14383;BME280;7275;50.328;8.720;2022-10-19T07:03:22;100799.06;;;16.40;52.31
14383;BME280;7275;50.328;8.720;2022-10-19T07:05:55;100809.91;;;16.37;52.35
14383;BME280;7275;50.328;8.720;2022-10-19T07:08:24;100819.81;;;16.34;52.31
14383;BME280;7275;50.328;8.720;2022-10-19T07:10:53;100817.22;;;16.32;52.38
14383;BME280;7275;50.328;8.720;2022-10-19T07:13:21;100814.56;;;16.32;52.42
14383;BME280;7275;50.328;8.720;2022-10-19T07:15:55;100810.13;;;16.31;52.58
14383;BME280;7275;50.328;8.720;2022-10-19T07:18:24;100817.09;;;16.35;52.62
14383;BME280;7275;50.328;8.720;2022-10-19T07:20:57;100809.81;;;16.39;52.64
14383;BME280;7275;50.328;8.720;2022-10-19T07:23:26;100807.81;;;16.44;52.71
14383;BME280;7275;50.328;8.720;2022-10-19T07:25:54;100806.72;;;16.49;52.81
14383;BME280;7275;50.328;8.720;2022-10-19T07:28:27;100813.38;;;16.59;52.84
14383;BME280;7275;50.328;8.720;2022-10-19T07:30:55;100816.50;;;16.69;52.81
14383;BME280;7275;50.328;8.720;2022-10-19T07:33:22;100804.56;;;16.77;52.74
14383;BME280;7275;50.328;8.720;2022-10-19T07:35:59;100820.09;;;16.88;52.67
14383;BME280;7275;50.328;8.720;2022-10-19T07:38:27;100818.81;;;16.97;52.64
14383;BME280;7275;50.328;8.720;2022-10-19T07:41:03;100815.72;;;17.06;52.48
14383;BME280;7275;50.328;8.720;2022-10-19T07:43:31;100813.66;;;17.12;52.54
14383;BME280;7275;50.328;8.720;2022-10-19T07:46:04;100823.75;;;17.24;52.49
14383;BME280;7275;50.328;8.720;2022-10-19T07:48:34;100819.59;;;17.37;52.51
14383;BME280;7275;50.328;8.720;2022-10-19T07:51:06;100827.84;;;17.51;52.27
14383;BME280;7275;50.328;8.720;2022-10-19T07:53:35;100813.97;;;17.62;52.32
14383;BME280;7275;50.328;8.720;2022-10-19T07:56:03;100822.41;;;17.72;51.98
14383;BME280;7275;50.328;8.720;2022-10-19T07:58:31;100821.78;;;17.84;52.10
14383;BME280;7275;50.328;8.720;2022-10-19T08:01:00;100828.44;;;17.94;51.95
14383;BME280;7275;50.328;8.720;2022-10-19T08:03:27;100821.53;;;18.07;51.75
14383;BME280;7275;50.328;8.720;2022-10-19T08:06:17;100814.16;;;18.29;52.05
14383;BME280;7275;50.328;8.720;2022-10-19T08:08:46;100805.84;;;18.52;52.05
14383;BME280;7275;50.328;8.720;2022-10-19T08:11:16;100809.81;;;18.78;51.89
14383;BME280;7275;50.328;8.720;2022-10-19T08:13:43;100805.03;;;19.00;51.70
14383;BME280;7275;50.328;8.720;2022-10-19T08:16:21;100806.88;;;19.15;51.41
14383;BME280;7275;50.328;8.720;2022-10-19T08:18:49;100808.91;;;19.27;51.33
14383;BME280;7275;50.328;8.720;2022-10-19T08:21:18;100820.69;;;19.40;51.27
14383;BME280;7275;50.328;8.720;2022-10-19T08:23:46;100826.84;;;19.58;51.31
14383;BME280;7275;50.328;8.720;2022-10-19T08:26:13;100820.38;;;19.77;51.18
14383;BME280;7275;50.328;8.720;2022-10-19T08:28:41;100824.75;;;19.94;51.06
14383;BME280;7275;50.328;8.720;2022-10-19T08:31:10;100820.22;;;20.10;50.81
14383;BME280;7275;50.328;8.720;2022-10-19T08:33:37;100814.16;;;20.22;50.75
14383;BME280;7275;50.328;8.720;2022-10-19T08:36:06;100807.13;;;20.35;50.61
14383;BME280;7275;50.328;8.720;2022-10-19T08:38:35;100810.59;;;20.51;50.58
14383;BME280;7275;50.328;8.720;2022-10-19T08:41:09;100807.94;;;20.65;50.39
14383;BME280;7275;50.328;8.720;2022-10-19T08:43:51;100801.63;;;20.81;50.01
14383;BME280;7275;50.328;8.720;2022-10-19T08:46:24;100812.19;;;20.98;49.97
14383;BME280;7275;50.328;8.720;2022-10-19T08:48:59;100799.09;;;21.21;49.88
14383;BME280;7275;50.328;8.720;2022-10-19T08:51:32;100790.91;;;21.64;49.24
14383;BME280;7275;50.328;8.720;2022-10-19T08:54:07;100783.81;;;22.16;49.00
14383;BME280;7275;50.328;8.720;2022-10-19T08:56:45;100781.47;;;22.76;47.98
14383;BME280;7275;50.328;8.720;2022-10-19T08:59:25;100782.19;;;23.64;48.06
14383;BME280;7275;50.328;8.720;2022-10-19T09:01:58;100775.63;;;24.61;47.07
14383;BME280;7275;50.328;8.720;2022-10-19T09:04:32;100776.06;;;25.68;46.33
14383;BME280;7275;50.328;8.720;2022-10-19T09:07:22;100768.03;;;26.82;45.40
14383;BME280;7275;50.328;8.720;2022-10-19T09:09:55;100766.13;;;27.92;44.37
14383;BME280;7275;50.328;8.720;2022-10-19T09:12:32;100771.09;;;28.92;43.13
14383;BME280;7275;50.328;8.720;2022-10-19T09:15:03;100766.53;;;29.84;42.25
14383;BME280;7275;50.328;8.720;2022-10-19T09:17:32;100764.19;;;30.59;40.93
14383;BME280;7275;50.328;8.720;2022-10-19T09:20:12;100761.56;;;31.27;39.98
14383;BME280;7275;50.328;8.720;2022-10-19T09:22:42;100760.06;;;31.74;38.63
14383;BME280;7275;50.328;8.720;2022-10-19T09:25:16;100764.00;;;31.80;38.17
14383;BME280;7275;50.328;8.720;2022-10-19T09:27:46;100764.47;;;31.67;37.59
14383;BME280;7275;50.328;8.720;2022-10-19T09:30:17;100768.50;;;31.47;37.00
14383;BME280;7275;50.328;8.720;2022-10-19T09:32:46;100756.56;;;31.14;36.89
14383;BME280;7275;50.328;8.720;2022-10-19T09:35:22;100763.16;;;30.60;36.80
14383;BME280;7275;50.328;8.720;2022-10-19T09:37:52;100756.81;;;29.99;36.90
14383;BME280;7275;50.328;8.720;2022-10-19T09:40:24;100770.38;;;29.37;37.06
14383;BME280;7275;50.328;8.720;2022-10-19T09:42:52;100768.81;;;28.88;37.53
14383;BME280;7275;50.328;8.720;2022-10-19T09:45:36;100765.44;;;28.47;37.79
14383;BME280;7275;50.328;8.720;2022-10-19T09:48:14;100757.88;;;28.32;38.04
14383;BME280;7275;50.328;8.720;2022-10-19T09:50:43;100755.13;;;28.41;38.65
14383;BME280;7275;50.328;8.720;2022-10-19T09:53:17;100760.22;;;28.92;38.63
14383;BME280;7275;50.328;8.720;2022-10-19T09:55:52;100756.06;;;29.35;38.17
14383;BME280;7275;50.328;8.720;2022-10-19T09:58:24;100756.94;;;29.53;37.70
14383;BME280;7275;50.328;8.720;2022-10-19T10:00:57;100758.44;;;29.47;37.28
14383;BME280;7275;50.328;8.720;2022-10-19T10:03:27;100757.81;;;29.26;37.39
14383;BME280;7275;50.328;8.720;2022-10-19T10:05:57;100760.31;;;29.00;37.53
14383;BME280;7275;50.328;8.720;2022-10-19T10:08:26;100757.53;;;28.73;37.46
14383;BME280;7275;50.328;8.720;2022-10-19T10:11:04;100763.16;;;28.62;37.64
14383;BME280;7275;50.328;8.720;2022-10-19T10:13:36;100759.16;;;28.66;37.85
14383;BME280;7275;50.328;8.720;2022-10-19T10:16:07;100748.06;;;28.77;37.85
14383;BME280;7275;50.328;8.720;2022-10-19T10:18:37;100743.66;;;29.13;37.84
14383;BME280;7275;50.328;8.720;2022-10-19T10:21:14;100741.06;;;29.93;37.26
14383;BME280;7275;50.328;8.720;2022-10-19T10:24:02;100725.03;;;31.02;36.84
14383;BME280;7275;50.328;8.720;2022-10-19T10:26:37;100729.88;;;32.00;35.89
14383;BME280;7275;50.328;8.720;2022-10-19T10:29:16;100737.19;;;33.04;34.90
14383;BME280;7275;50.328;8.720;2022-10-19T10:31:45;100731.22;;;34.01;34.52
14383;BME280;7275;50.328;8.720;2022-10-19T10:34:17;100732.16;;;34.90;32.81
14383;BME280;7275;50.328;8.720;2022-10-19T10:37:04;100722.53;;;35.74;32.79
14383;BME280;7275;50.328;8.720;2022-10-19T10:39:39;100727.97;;;36.45;31.58
14383;BME280;7275;50.328;8.720;2022-10-19T10:42:13;100731.25;;;37.17;30.78
14383;BME280;7275;50.328;8.720;2022-10-19T10:44:44;100720.75;;;37.88;30.28
14383;BME280;7275;50.328;8.720;2022-10-19T10:47:16;100715.97;;;38.49;29.51
14383;BME280;7275;50.328;8.720;2022-10-19T10:49:52;100714.22;;;39.00;28.49
14383;BME280;7275;50.328;8.720;2022-10-19T10:52:20;100706.81;;;39.51;28.02
14383;BME280;7275;50.328;8.720;2022-10-19T10:54:57;100710.78;;;40.06;27.44
14383;BME280;7275;50.328;8.720;2022-10-19T10:57:30;100694.09;;;40.44;27.06
14383;BME280;7275;50.328;8.720;2022-10-19T11:00:03;100702.72;;;40.79;26.98
14383;BME280;7275;50.328;8.720;2022-10-19T11:02:40;100700.69;;;41.10;26.73
14383;BME280;7275;50.328;8.720;2022-10-19T11:05:14;100706.50;;;41.45;25.86
14383;BME280;7275;50.328;8.720;2022-10-19T11:07:45;100694.81;;;41.73;25.21
14383;BME280;7275;50.328;8.720;2022-10-19T11:10:20;100686.75;;;41.83;25.19
14383;BME280;7275;50.328;8.720;2022-10-19T11:12:57;100683.84;;;41.78;24.80
14383;BME280;7275;50.328;8.720;2022-10-19T11:15:30;100678.97;;;42.03;25.00
14383;BME280;7275;50.328;8.720;2022-10-19T11:18:10;100674.19;;;42.33;24.97
14383;BME280;7275;50.328;8.720;2022-10-19T11:20:46;100669.88;;;42.49;24.13
14383;BME280;7275;50.328;8.720;2022-10-19T11:23:19;100671.81;;;42.71;23.48
14383;BME280;7275;50.328;8.720;2022-10-19T11:25:57;100673.63;;;42.77;23.31
14383;BME280;7275;50.328;8.720;2022-10-19T11:28:43;100668.31;;;42.76;23.55
14383;BME280;7275;50.328;8.720;2022-10-19T11:31:15;100655.34;;;42.81;23.19
14383;BME280;7275;50.328;8.720;2022-10-19T11:33:52;100661.53;;;42.95;23.06
14383;BME280;7275;50.328;8.720;2022-10-19T11:36:33;100643.78;;;43.13;22.87
14383;BME280;7275;50.328;8.720;2022-10-19T11:39:17;100646.44;;;43.19;22.66
14383;BME280;7275;50.328;8.720;2022-10-19T11:41:56;100632.66;;;43.13;22.19
14383;BME280;7275;50.328;8.720;2022-10-19T11:44:36;100638.34;;;43.18;22.16
14383;BME280;7275;50.328;8.720;2022-10-19T11:47:20;100630.94;;;43.35;22.18
14383;BME280;7275;50.328;8.720;2022-10-19T11:50:02;100626.56;;;43.67;21.80
14383;BME280;7275;50.328;8.720;2022-10-19T11:52:44;100622.97;;;43.83;21.22
14383;BME280;7275;50.328;8.720;2022-10-19T11:55:34;100616.78;;;43.81;21.20
14383;BME280;7275;50.328;8.720;2022-10-19T11:58:12;100610.09;;;43.82;20.85
14383;BME280;7275;50.328;8.720;2022-10-19T12:00:53;100613.47;;;43.84;21.37
14383;BME280;7275;50.328;8.720;2022-10-19T12:03:36;100605.81;;;43.91;20.94
14383;BME280;7275;50.328;8.720;2022-10-19T12:06:14;100611.72;;;43.95;20.77
14383;BME280;7275;50.328;8.720;2022-10-19T12:09:03;100599.63;;;43.73;20.78
14383;BME280;7275;50.328;8.720;2022-10-19T12:11:46;100593.75;;;43.57;21.03
14383;BME280;7275;50.328;8.720;2022-10-19T12:14:21;100593.09;;;43.67;20.84
14383;BME280;7275;50.328;8.720;2022-10-19T12:16:53;100594.91;;;43.90;20.41
14383;BME280;7275;50.328;8.720;2022-10-19T12:19:25;100590.78;;;44.25;20.32
14383;BME280;7275;50.328;8.720;2022-10-19T12:21:57;100588.38;;;44.51;19.70
14383;BME280;7275;50.328;8.720;2022-10-19T12:24:26;100585.16;;;44.59;19.56
14383;BME280;7275;50.328;8.720;2022-10-19T12:26:57;100579.47;;;44.70;19.34
14383;BME280;7275;50.328;8.720;2022-10-19T12:29:27;100588.34;;;44.67;19.37
14383;BME280;7275;50.328;8.720;2022-10-19T12:31:58;100579.09;;;44.45;19.17
14383;BME280;7275;50.328;8.720;2022-10-19T12:34:34;100569.47;;;44.19;19.13
14383;BME280;7275;50.328;8.720;2022-10-19T12:37:08;100566.03;;;43.96;18.99
14383;BME280;7275;50.328;8.720;2022-10-19T12:39:40;100568.13;;;43.72;18.91
14383;BME280;7275;50.328;8.720;2022-10-19T12:42:16;100562.44;;;43.67;19.12
14383;BME280;7275;50.328;8.720;2022-10-19T12:45:09;100554.03;;;43.50;19.36
14383;BME280;7275;50.328;8.720;2022-10-19T12:48:16;100550.59;;;43.43;19.73
14383;BME280;7275;50.328;8.720;2022-10-19T12:51:04;100547.50;;;43.28;19.41
14383;BME280;7275;50.328;8.720;2022-10-19T12:53:33;100541.09;;;43.28;18.95
14383;BME280;7275;50.328;8.720;2022-10-19T12:56:05;100532.59;;;43.23;18.94
14383;BME280;7275;50.328;8.720;2022-10-19T12:58:38;100534.44;;;43.29;18.76
14383;BME280;7275;50.328;8.720;2022-10-19T13:01:17;100542.38;;;43.37;19.10
14383;BME280;7275;50.328;8.720;2022-10-19T13:03:48;100536.56;;;43.38;18.80
14383;BME280;7275;50.328;8.720;2022-10-19T13:06:28;100531.31;;;43.58;18.55
14383;BME280;7275;50.328;8.720;2022-10-19T13:08:58;100528.41;;;43.98;18.62
14383;BME280;7275;50.328;8.720;2022-10-19T13:11:27;100527.09;;;44.39;18.53
14383;BME280;7275;50.328;8.720;2022-10-19T13:13:57;100521.28;;;44.62;17.79
14383;BME280;7275;50.328;8.720;2022-10-19T13:16:39;100519.59;;;44.61;18.22
14383;BME280;7275;50.328;8.720;2022-10-19T13:19:19;100515.19;;;44.44;18.09
14383;BME280;7275;50.328;8.720;2022-10-19T13:21:50;100514.81;;;44.18;18.05
14383;BME280;7275;50.328;8.720;2022-10-19T13:24:35;100510.88;;;43.81;18.09